sensor_id;sensor_type;location;lat;lon;timestamp;pressure;altitude;pressure_sealevel;temperature;humidity
60646;BME280;46462;32.608;-117.032;2023-05-23T00:00:38;99163.95;;;23.95;52.93
60646;BME280;46462;32.608;-117.032;2023-05-23T00:03:09;99160.84;;;23.96;52.91
60646;BME280;46462;32.608;-117.032;2023-05-23T00:05:39;99160.63;;;23.95;52.89
60646;BME280;46462;32.608;-117.032;2023-05-23T00:08:10;99158.67;;;24.00;52.67
60646;BME280;46462;32.608;-117.032;2023-05-23T00:10:40;99155.61;;;24.01;52.73
60646;BME280;46462;32.608;-117.032;2023-05-23T00:13:11;99154.95;;;24.03;52.54
60646;BME280;46462;32.608;-117.032;2023-05-23T00:15:42;99152.98;;;24.04;52.56
60646;BME280;46462;32.608;-117.032;2023-05-23T00:18:13;99152.56;;;24.03;52.60
60646;BME280;46462;32.608;-117.032;2023-05-23T00:20:45;99151.10;;;24.02;52.61
60646;BME280;46462;32.608;-117.032;2023-05-23T00:23:14;99150.35;;;24.05;52.44
60646;BME280;46462;32.608;-117.032;2023-05-23T00:25:45;99151.40;;;24.02;52.51
60646;BME280;46462;32.608;-117.032;2023-05-23T00:28:15;99150.07;;;24.03;52.57
60646;BME280;46462;32.608;-117.032;2023-05-23T00:30:47;99150.41;;;24.03;52.41
60646;BME280;46462;32.608;-117.032;2023-05-23T00:33:17;99150.30;;;24.04;52.51
60646;BME280;46462;32.608;-117.032;2023-05-23T00:35:47;99148.77;;;24.06;52.39
60646;BME280;46462;32.608;-117.032;2023-05-23T00:38:18;99150.98;;;24.02;52.48
60646;BME280;46462;32.608;-117.032;2023-05-23T00:40:48;99155.93;;;24.05;52.36
60646;BME280;46462;32.608;-117.032;2023-05-23T00:43:19;99158.32;;;24.06;52.31
60646;BME280;46462;32.608;-117.032;2023-05-23T00:45:50;99157.73;;;24.06;52.32
60646;BME280;46462;32.608;-117.032;2023-05-23T00:48:21;99156.47;;;24.08;52.30
60646;BME280;46462;32.608;-117.032;2023-05-23T00:50:52;99156.26;;;24.10;52.18
60646;BME280;46462;32.608;-117.032;2023-05-23T00:53:22;99157.22;;;24.09;52.14
60646;BME280;46462;32.608;-117.032;2023-05-23T00:55:53;99156.01;;;24.06;52.26
60646;BME280;46462;32.608;-117.032;2023-05-23T00:58:24;99155.15;;;24.07;52.20
60646;BME280;46462;32.608;-117.032;2023-05-23T01:00:54;99152.90;;;24.05;52.29
60646;BME280;46462;32.608;-117.032;2023-05-23T01:03:25;99155.43;;;24.21;51.94
60646;BME280;46462;32.608;-117.032;2023-05-23T01:05:56;99158.11;;;24.14;52.07
60646;BME280;46462;32.608;-117.032;2023-05-23T01:08:28;99159.82;;;24.12;52.08
60646;BME280;46462;32.608;-117.032;2023-05-23T01:11:03;99162.86;;;24.14;51.95
60646;BME280;46462;32.608;-117.032;2023-05-23T01:13:33;99159.77;;;24.09;52.09
60646;BME280;46462;32.608;-117.032;2023-05-23T01:16:04;99162.09;;;24.08;52.11
60646;BME280;46462;32.608;-117.032;2023-05-23T01:18:35;99164.41;;;24.12;51.98
60646;BME280;46462;32.608;-117.032;2023-05-23T01:21:05;99164.87;;;24.10;52.06
60646;BME280;46462;32.608;-117.032;2023-05-23T01:28:36;99164.10;;;24.15;51.99
60646;BME280;46462;32.608;-117.032;2023-05-23T01:31:04;99167.89;;;24.23;51.65
60646;BME280;46462;32.608;-117.032;2023-05-23T01:33:34;99166.05;;;24.17;51.85
60646;BME280;46462;32.608;-117.032;2023-05-23T01:36:05;99166.22;;;24.18;51.79
60646;BME280;46462;32.608;-117.032;2023-05-23T01:38:34;99166.45;;;24.16;51.85
60646;BME280;46462;32.608;-117.032;2023-05-23T01:41:05;99167.42;;;24.15;51.87
60646;BME280;46462;32.608;-117.032;2023-05-23T01:43:36;99169.29;;;24.12;51.94
60646;BME280;46462;32.608;-117.032;2023-05-23T01:46:07;99170.52;;;24.14;51.90
60646;BME280;46462;32.608;-117.032;2023-05-23T01:48:38;99173.03;;;24.25;51.59
60646;BME280;46462;32.608;-117.032;2023-05-23T01:51:08;99170.53;;;24.23;51.60
60646;BME280;46462;32.608;-117.032;2023-05-23T01:53:39;99176.48;;;24.22;51.67
60646;BME280;46462;32.608;-117.032;2023-05-23T01:56:10;99175.86;;;24.16;51.76
60646;BME280;46462;32.608;-117.032;2023-05-23T01:58:40;99174.46;;;24.13;51.81
60646;BME280;46462;32.608;-117.032;2023-05-23T02:01:11;99177.19;;;24.10;51.89
60646;BME280;46462;32.608;-117.032;2023-05-23T02:03:42;99180.95;;;24.06;51.98
60646;BME280;46462;32.608;-117.032;2023-05-23T02:06:12;99184.98;;;24.05;52.08
60646;BME280;46462;32.608;-117.032;2023-05-23T02:08:43;99185.46;;;24.02;52.06
60646;BME280;46462;32.608;-117.032;2023-05-23T02:11:14;99182.13;;;24.08;51.90
60646;BME280;46462;32.608;-117.032;2023-05-23T02:13:44;99184.60;;;24.06;51.95
60646;BME280;46462;32.608;-117.032;2023-05-23T02:16:15;99187.08;;;24.06;51.94
60646;BME280;46462;32.608;-117.032;2023-05-23T02:18:46;99184.36;;;24.09;51.88
60646;BME280;46462;32.608;-117.032;2023-05-23T02:21:17;99188.16;;;24.08;51.89
60646;BME280;46462;32.608;-117.032;2023-05-23T02:23:47;99188.96;;;24.13;51.72
60646;BME280;46462;32.608;-117.032;2023-05-23T02:26:18;99188.84;;;24.13;51.73
60646;BME280;46462;32.608;-117.032;2023-05-23T02:28:48;99192.44;;;24.14;51.65
60646;BME280;46462;32.608;-117.032;2023-05-23T02:31:19;99193.77;;;24.16;51.62
60646;BME280;46462;32.608;-117.032;2023-05-23T02:33:50;99190.55;;;24.11;51.71
60646;BME280;46462;32.608;-117.032;2023-05-23T02:36:20;99186.37;;;24.10;51.68
60646;BME280;46462;32.608;-117.032;2023-05-23T02:38:51;99182.74;;;24.16;51.54
60646;BME280;46462;32.608;-117.032;2023-05-23T02:41:21;99184.33;;;24.15;51.55
60646;BME280;46462;32.608;-117.032;2023-05-23T02:43:52;99183.32;;;24.07;51.82
60646;BME280;46462;32.608;-117.032;2023-05-23T02:46:23;99183.41;;;24.09;51.72
60646;BME280;46462;32.608;-117.032;2023-05-23T02:48:54;99183.85;;;24.12;51.62
60646;BME280;46462;32.608;-117.032;2023-05-23T02:51:24;99189.19;;;24.20;51.41
60646;BME280;46462;32.608;-117.032;2023-05-23T02:53:55;99194.45;;;24.27;51.15
60646;BME280;46462;32.608;-117.032;2023-05-23T02:56:26;99190.29;;;24.17;51.39
60646;BME280;46462;32.608;-117.032;2023-05-23T02:58:56;99189.31;;;24.13;51.49
60646;BME280;46462;32.608;-117.032;2023-05-23T03:01:27;99191.51;;;24.11;51.56
60646;BME280;46462;32.608;-117.032;2023-05-23T03:03:58;99197.56;;;24.22;51.26
60646;BME280;46462;32.608;-117.032;2023-05-23T03:06:29;99205.27;;;24.28;51.08
60646;BME280;46462;32.608;-117.032;2023-05-23T03:09:00;99206.40;;;24.14;51.40
60646;BME280;46462;32.608;-117.032;2023-05-23T03:11:30;99208.23;;;24.11;51.53
60646;BME280;46462;32.608;-117.032;2023-05-23T03:14:01;99208.68;;;24.08;51.55
60646;BME280;46462;32.608;-117.032;2023-05-23T03:16:31;99216.96;;;24.04;51.71
60646;BME280;46462;32.608;-117.032;2023-05-23T03:19:02;99221.97;;;24.01;51.74
60646;BME280;46462;32.608;-117.032;2023-05-23T03:21:33;99221.47;;;24.02;51.73
60646;BME280;46462;32.608;-117.032;2023-05-23T03:24:04;99225.84;;;24.03;51.67
60646;BME280;46462;32.608;-117.032;2023-05-23T03:26:34;99222.87;;;23.99;51.79
60646;BME280;46462;32.608;-117.032;2023-05-23T03:29:05;99224.10;;;24.04;51.63
60646;BME280;46462;32.608;-117.032;2023-05-23T03:31:36;99228.33;;;24.06;51.58
60646;BME280;46462;32.608;-117.032;2023-05-23T03:34:06;99230.83;;;24.05;51.58
60646;BME280;46462;32.608;-117.032;2023-05-23T03:36:37;99234.36;;;24.06;51.54
60646;BME280;46462;32.608;-117.032;2023-05-23T03:39:08;99237.56;;;24.05;51.54
60646;BME280;46462;32.608;-117.032;2023-05-23T03:41:38;99242.40;;;24.07;51.50
60646;BME280;46462;32.608;-117.032;2023-05-23T03:44:09;99243.84;;;24.06;51.50
60646;BME280;46462;32.608;-117.032;2023-05-23T03:46:40;99246.04;;;24.03;51.51
60646;BME280;46462;32.608;-117.032;2023-05-23T03:49:10;99248.51;;;24.07;51.44
60646;BME280;46462;32.608;-117.032;2023-05-23T03:51:41;99250.63;;;24.03;51.59
60646;BME280;46462;32.608;-117.032;2023-05-23T03:54:12;99250.33;;;24.08;51.40
60646;BME280;46462;32.608;-117.032;2023-05-23T03:56:43;99248.11;;;24.09;51.27
60646;BME280;46462;32.608;-117.032;2023-05-23T03:59:13;99247.90;;;24.01;51.52
60646;BME280;46462;32.608;-117.032;2023-05-23T04:01:44;99257.50;;;24.03;51.51
60646;BME280;46462;32.608;-117.032;2023-05-23T04:04:15;99260.58;;;24.01;51.54
60646;BME280;46462;32.608;-117.032;2023-05-23T04:06:46;99264.82;;;23.96;51.61
60646;BME280;46462;32.608;-117.032;2023-05-23T04:09:16;99270.92;;;24.03;51.44
60646;BME280;46462;32.608;-117.032;2023-05-23T04:11:47;99274.06;;;24.00;51.47
60646;BME280;46462;32.608;-117.032;2023-05-23T04:14:18;99276.92;;;24.02;51.43
60646;BME280;46462;32.608;-117.032;2023-05-23T04:16:48;99279.19;;;24.04;51.30
60646;BME280;46462;32.608;-117.032;2023-05-23T04:19:19;99283.05;;;24.00;51.49
60646;BME280;46462;32.608;-117.032;2023-05-23T04:21:50;99286.37;;;24.01;51.45
60646;BME280;46462;32.608;-117.032;2023-05-23T04:24:20;99288.49;;;23.96;51.57
60646;BME280;46462;32.608;-117.032;2023-05-23T04:26:51;99286.42;;;24.00;51.47
60646;BME280;46462;32.608;-117.032;2023-05-23T04:29:22;99284.98;;;23.98;51.50
60646;BME280;46462;32.608;-117.032;2023-05-23T04:31:53;99289.03;;;23.96;51.57
60646;BME280;46462;32.608;-117.032;2023-05-23T04:34:23;99289.16;;;23.95;51.60
60646;BME280;46462;32.608;-117.032;2023-05-23T04:36:54;99287.48;;;24.00;51.44
60646;BME280;46462;32.608;-117.032;2023-05-23T04:39:24;99287.57;;;24.00;51.43
60646;BME280;46462;32.608;-117.032;2023-05-23T04:41:55;99289.90;;;23.99;51.44
60646;BME280;46462;32.608;-117.032;2023-05-23T04:44:26;99293.40;;;24.00;51.43
60646;BME280;46462;32.608;-117.032;2023-05-23T04:46:57;99298.85;;;24.03;51.29
60646;BME280;46462;32.608;-117.032;2023-05-23T04:49:27;99299.97;;;24.01;51.34
60646;BME280;46462;32.608;-117.032;2023-05-23T04:51:58;99296.76;;;23.98;51.38
60646;BME280;46462;32.608;-117.032;2023-05-23T04:54:29;99293.70;;;24.01;51.32
60646;BME280;46462;32.608;-117.032;2023-05-23T04:56:59;99301.57;;;23.96;51.45
60646;BME280;46462;32.608;-117.032;2023-05-23T04:59:30;99304.55;;;23.97;51.44
60646;BME280;46462;32.608;-117.032;2023-05-23T05:02:01;99305.11;;;24.02;51.31
60646;BME280;46462;32.608;-117.032;2023-05-23T05:04:32;99304.58;;;24.00;51.30
60646;BME280;46462;32.608;-117.032;2023-05-23T05:07:02;99305.21;;;23.96;51.36
60646;BME280;46462;32.608;-117.032;2023-05-23T05:09:33;99303.37;;;23.94;51.46
60646;BME280;46462;32.608;-117.032;2023-05-23T05:12:04;99303.67;;;24.01;51.28
60646;BME280;46462;32.608;-117.032;2023-05-23T05:14:34;99303.87;;;23.98;51.28
60646;BME280;46462;32.608;-117.032;2023-05-23T05:17:05;99307.79;;;24.00;51.22
60646;BME280;46462;32.608;-117.032;2023-05-23T05:19:36;99309.21;;;24.02;51.14
60646;BME280;46462;32.608;-117.032;2023-05-23T05:22:07;99310.71;;;23.97;51.32
60646;BME280;46462;32.608;-117.032;2023-05-23T05:24:37;99314.41;;;23.95;51.37
60646;BME280;46462;32.608;-117.032;2023-05-23T05:27:08;99315.23;;;23.97;51.33
60646;BME280;46462;32.608;-117.032;2023-05-23T05:29:39;99314.99;;;23.96;51.31
60646;BME280;46462;32.608;-117.032;2023-05-23T05:32:09;99317.17;;;24.00;51.20
60646;BME280;46462;32.608;-117.032;2023-05-23T05:34:40;99315.06;;;23.96;51.24
60646;BME280;46462;32.608;-117.032;2023-05-23T05:37:11;99316.94;;;23.94;51.31
60646;BME280;46462;32.608;-117.032;2023-05-23T05:39:41;99317.88;;;23.97;51.15
60646;BME280;46462;32.608;-117.032;2023-05-23T05:42:12;99317.62;;;24.00;51.09
60646;BME280;46462;32.608;-117.032;2023-05-23T05:44:43;99315.92;;;24.00;51.03
60646;BME280;46462;32.608;-117.032;2023-05-23T05:47:14;99319.91;;;23.96;51.17
60646;BME280;46462;32.608;-117.032;2023-05-23T05:49:44;99324.55;;;23.97;51.09
60646;BME280;46462;32.608;-117.032;2023-05-23T05:52:15;99326.62;;;23.97;51.11
60646;BME280;46462;32.608;-117.032;2023-05-23T05:54:46;99326.20;;;23.97;51.05
60646;BME280;46462;32.608;-117.032;2023-05-23T05:57:16;99325.80;;;23.97;51.11
60646;BME280;46462;32.608;-117.032;2023-05-23T05:59:47;99327.52;;;23.93;51.16
60646;BME280;46462;32.608;-117.032;2023-05-23T06:02:18;99328.22;;;23.88;51.26
60646;BME280;46462;32.608;-117.032;2023-05-23T06:04:48;99330.34;;;23.85;51.32
60646;BME280;46462;32.608;-117.032;2023-05-23T06:07:19;99332.21;;;23.92;51.10
60646;BME280;46462;32.608;-117.032;2023-05-23T06:09:50;99337.21;;;23.86;51.27
60646;BME280;46462;32.608;-117.032;2023-05-23T06:12:21;99340.27;;;23.84;51.28
60646;BME280;46462;32.608;-117.032;2023-05-23T06:14:51;99341.68;;;23.83;51.32
60646;BME280;46462;32.608;-117.032;2023-05-23T06:17:22;99342.09;;;23.84;51.30
60646;BME280;46462;32.608;-117.032;2023-05-23T06:19:53;99340.88;;;23.86;51.23
60646;BME280;46462;32.608;-117.032;2023-05-23T06:22:23;99344.87;;;23.86;51.22
60646;BME280;46462;32.608;-117.032;2023-05-23T06:24:53;99347.46;;;23.85;51.23
60646;BME280;46462;32.608;-117.032;2023-05-23T06:27:24;99351.71;;;23.90;51.05
60646;BME280;46462;32.608;-117.032;2023-05-23T06:29:54;99354.03;;;23.82;51.28
60646;BME280;46462;32.608;-117.032;2023-05-23T06:32:25;99356.05;;;23.89;51.14
60646;BME280;46462;32.608;-117.032;2023-05-23T06:34:56;99356.68;;;23.83;51.22
60646;BME280;46462;32.608;-117.032;2023-05-23T06:37:27;99356.90;;;23.80;51.30
60646;BME280;46462;32.608;-117.032;2023-05-23T06:39:57;99361.63;;;23.84;51.18
60646;BME280;46462;32.608;-117.032;2023-05-23T06:42:28;99365.42;;;23.83;51.17
60646;BME280;46462;32.608;-117.032;2023-05-23T06:44:59;99365.30;;;23.81;51.21
60646;BME280;46462;32.608;-117.032;2023-05-23T06:47:29;99362.06;;;23.81;51.21
60646;BME280;46462;32.608;-117.032;2023-05-23T06:50:01;99362.54;;;23.81;51.18
60646;BME280;46462;32.608;-117.032;2023-05-23T06:52:31;99364.53;;;23.77;51.31
60646;BME280;46462;32.608;-117.032;2023-05-23T06:55:02;99367.41;;;23.82;51.13
60646;BME280;46462;32.608;-117.032;2023-05-23T06:57:32;99367.55;;;23.93;50.82
60646;BME280;46462;32.608;-117.032;2023-05-23T07:00:08;99365.78;;;23.94;50.70
60646;BME280;46462;32.608;-117.032;2023-05-23T07:02:38;99363.08;;;23.96;50.62
60646;BME280;46462;32.608;-117.032;2023-05-23T07:05:09;99361.11;;;24.01;50.46
60646;BME280;46462;32.608;-117.032;2023-05-23T07:07:39;99365.52;;;23.93;50.65
60646;BME280;46462;32.608;-117.032;2023-05-23T07:10:10;99370.77;;;23.91;50.71
60646;BME280;46462;32.608;-117.032;2023-05-23T07:12:41;99371.22;;;23.88;50.69
60646;BME280;46462;32.608;-117.032;2023-05-23T07:15:12;99377.34;;;23.86;50.80
60646;BME280;46462;32.608;-117.032;2023-05-23T07:17:42;99381.45;;;23.86;50.77
60646;BME280;46462;32.608;-117.032;2023-05-23T07:20:13;99385.09;;;23.88;50.72
60646;BME280;46462;32.608;-117.032;2023-05-23T07:22:44;99387.74;;;23.87;50.65
60646;BME280;46462;32.608;-117.032;2023-05-23T07:25:14;99386.81;;;23.88;50.62
60646;BME280;46462;32.608;-117.032;2023-05-23T07:27:45;99384.47;;;23.89;50.55
60646;BME280;46462;32.608;-117.032;2023-05-23T07:30:16;99384.03;;;23.88;50.59
60646;BME280;46462;32.608;-117.032;2023-05-23T07:32:47;99380.72;;;23.97;50.34
60646;BME280;46462;32.608;-117.032;2023-05-23T07:35:17;99379.70;;;23.96;50.30
60646;BME280;46462;32.608;-117.032;2023-05-23T07:37:48;99372.13;;;23.97;50.27
60646;BME280;46462;32.608;-117.032;2023-05-23T07:40:19;99370.00;;;23.93;50.26
60646;BME280;46462;32.608;-117.032;2023-05-23T07:42:49;99367.96;;;23.84;50.54
60646;BME280;46462;32.608;-117.032;2023-05-23T07:45:20;99367.19;;;23.77;50.65
60646;BME280;46462;32.608;-117.032;2023-05-23T07:47:51;99364.69;;;23.79;50.58
60646;BME280;46462;32.608;-117.032;2023-05-23T07:50:21;99366.25;;;23.90;50.29
60646;BME280;46462;32.608;-117.032;2023-05-23T07:52:52;99368.16;;;23.93;50.17
60646;BME280;46462;32.608;-117.032;2023-05-23T07:55:23;99370.86;;;23.89;50.28
60646;BME280;46462;32.608;-117.032;2023-05-23T07:57:53;99374.49;;;23.91;50.20
60646;BME280;46462;32.608;-117.032;2023-05-23T08:00:24;99378.20;;;23.87;50.26
60646;BME280;46462;32.608;-117.032;2023-05-23T08:02:55;99379.06;;;23.92;50.13
60646;BME280;46462;32.608;-117.032;2023-05-23T08:05:26;99379.99;;;23.88;50.21
60646;BME280;46462;32.608;-117.032;2023-05-23T08:07:57;99380.46;;;23.98;49.95
60646;BME280;46462;32.608;-117.032;2023-05-23T08:10:27;99380.06;;;23.93;50.00
60646;BME280;46462;32.608;-117.032;2023-05-23T08:12:59;99375.16;;;23.95;49.90
60646;BME280;46462;32.608;-117.032;2023-05-23T08:15:29;99375.94;;;23.85;50.21
60646;BME280;46462;32.608;-117.032;2023-05-23T08:17:59;99377.38;;;23.76;50.37
60646;BME280;46462;32.608;-117.032;2023-05-23T08:20:30;99381.66;;;23.93;49.99
60646;BME280;46462;32.608;-117.032;2023-05-23T08:23:01;99381.81;;;23.90;50.00
60646;BME280;46462;32.608;-117.032;2023-05-23T08:25:32;99380.95;;;23.87;50.06
60646;BME280;46462;32.608;-117.032;2023-05-23T08:28:02;99377.63;;;23.84;50.12
60646;BME280;46462;32.608;-117.032;2023-05-23T08:30:33;99377.33;;;23.80;50.22
60646;BME280;46462;32.608;-117.032;2023-05-23T08:33:04;99378.32;;;23.89;49.96
60646;BME280;46462;32.608;-117.032;2023-05-23T08:35:34;99379.90;;;23.87;49.97
60646;BME280;46462;32.608;-117.032;2023-05-23T08:38:06;99375.57;;;23.87;49.91
60646;BME280;46462;32.608;-117.032;2023-05-23T08:40:36;99374.51;;;23.83;49.93
60646;BME280;46462;32.608;-117.032;2023-05-23T08:43:07;99376.83;;;23.82;49.95
60646;BME280;46462;32.608;-117.032;2023-05-23T08:45:37;99378.12;;;23.87;49.81
60646;BME280;46462;32.608;-117.032;2023-05-23T08:48:08;99375.77;;;23.77;50.04
60646;BME280;46462;32.608;-117.032;2023-05-23T08:50:40;99370.66;;;23.90;49.72
60646;BME280;46462;32.608;-117.032;2023-05-23T08:53:09;99370.93;;;23.94;49.52
60646;BME280;46462;32.608;-117.032;2023-05-23T08:55:40;99371.60;;;24.03;49.30
60646;BME280;46462;32.608;-117.032;2023-05-23T08:58:11;99374.03;;;23.93;49.54
60646;BME280;46462;32.608;-117.032;2023-05-23T09:00:43;99375.55;;;23.89;49.62
60646;BME280;46462;32.608;-117.032;2023-05-23T09:03:12;99375.26;;;23.84;49.72
60646;BME280;46462;32.608;-117.032;2023-05-23T09:05:43;99374.88;;;23.82;49.73
60646;BME280;46462;32.608;-117.032;2023-05-23T09:08:14;99373.65;;;23.74;49.92
60646;BME280;46462;32.608;-117.032;2023-05-23T09:10:44;99374.08;;;23.70;50.00
60646;BME280;46462;32.608;-117.032;2023-05-23T09:13:15;99370.99;;;23.70;49.98
60646;BME280;46462;32.608;-117.032;2023-05-23T09:18:17;99372.76;;;23.83;49.66
60646;BME280;46462;32.608;-117.032;2023-05-23T09:20:48;99373.01;;;23.80;49.71
60646;BME280;46462;32.608;-117.032;2023-05-23T09:23:18;99371.90;;;23.85;49.53
60646;BME280;46462;32.608;-117.032;2023-05-23T09:25:49;99366.01;;;23.93;49.31
60646;BME280;46462;32.608;-117.032;2023-05-23T09:28:20;99361.29;;;23.99;49.09
60646;BME280;46462;32.608;-117.032;2023-05-23T09:30:57;99360.52;;;23.93;49.23
60646;BME280;46462;32.608;-117.032;2023-05-23T09:33:21;99355.34;;;23.83;49.44
60646;BME280;46462;32.608;-117.032;2023-05-23T09:35:52;99353.00;;;23.81;49.46
60646;BME280;46462;32.608;-117.032;2023-05-23T09:38:24;99355.30;;;23.79;49.50
60646;BME280;46462;32.608;-117.032;2023-05-23T09:40:54;99352.58;;;23.75;49.56
60646;BME280;46462;32.608;-117.032;2023-05-23T09:43:24;99352.60;;;23.80;49.46
60646;BME280;46462;32.608;-117.032;2023-05-23T09:45:54;99349.33;;;23.80;49.42
60646;BME280;46462;32.608;-117.032;2023-05-23T09:48:28;99342.41;;;23.84;49.30
60646;BME280;46462;32.608;-117.032;2023-05-23T09:50:56;99338.65;;;23.77;49.42
60646;BME280;46462;32.608;-117.032;2023-05-23T09:53:27;99335.54;;;23.84;49.24
60646;BME280;46462;32.608;-117.032;2023-05-23T09:55:58;99335.53;;;23.88;49.08
60646;BME280;46462;32.608;-117.032;2023-05-23T09:58:28;99337.27;;;23.96;48.84
60646;BME280;46462;32.608;-117.032;2023-05-23T10:00:59;99341.33;;;23.98;48.77
60646;BME280;46462;32.608;-117.032;2023-05-23T10:03:34;99338.65;;;23.97;48.77
60646;BME280;46462;32.608;-117.032;2023-05-23T10:06:06;99332.20;;;23.93;48.87
60646;BME280;46462;32.608;-117.032;2023-05-23T10:08:37;99327.57;;;23.91;48.89
60646;BME280;46462;32.608;-117.032;2023-05-23T10:13:32;99324.70;;;23.84;49.01
60646;BME280;46462;32.608;-117.032;2023-05-23T10:16:08;99322.63;;;23.87;48.93
60646;BME280;46462;32.608;-117.032;2023-05-23T10:18:42;99320.13;;;23.89;48.90
60646;BME280;46462;32.608;-117.032;2023-05-23T10:21:10;99311.37;;;23.87;48.90
60646;BME280;46462;32.608;-117.032;2023-05-23T10:23:35;99304.80;;;23.81;49.02
60646;BME280;46462;32.608;-117.032;2023-05-23T10:26:06;99296.40;;;23.83;49.01
60646;BME280;46462;32.608;-117.032;2023-05-23T10:28:37;99294.68;;;23.87;48.83
60646;BME280;46462;32.608;-117.032;2023-05-23T10:31:07;99292.16;;;23.85;48.88
60646;BME280;46462;32.608;-117.032;2023-05-23T10:33:43;99292.54;;;23.76;49.11
60646;BME280;46462;32.608;-117.032;2023-05-23T10:36:12;99287.30;;;23.81;48.93
60646;BME280;46462;32.608;-117.032;2023-05-23T10:38:44;99284.21;;;23.81;48.86
60646;BME280;46462;32.608;-117.032;2023-05-23T10:41:12;99285.40;;;23.82;48.87
60646;BME280;46462;32.608;-117.032;2023-05-23T10:43:46;99283.69;;;23.79;48.88
60646;BME280;46462;32.608;-117.032;2023-05-23T10:46:13;99278.38;;;23.74;49.05
60646;BME280;46462;32.608;-117.032;2023-05-23T10:48:43;99274.95;;;23.78;48.90
60646;BME280;46462;32.608;-117.032;2023-05-23T10:51:14;99272.20;;;23.84;48.75
60646;BME280;46462;32.608;-117.032;2023-05-23T10:53:45;99267.49;;;23.83;48.75
60646;BME280;46462;32.608;-117.032;2023-05-23T10:56:20;99263.50;;;23.87;48.61
60646;BME280;46462;32.608;-117.032;2023-05-23T10:58:45;99259.78;;;23.83;48.70
60646;BME280;46462;32.608;-117.032;2023-05-23T11:01:17;99250.86;;;23.88;48.56
60646;BME280;46462;32.608;-117.032;2023-05-23T11:03:51;99244.26;;;23.86;48.55
60646;BME280;46462;32.608;-117.032;2023-05-23T11:08:48;99238.24;;;23.83;48.59
60646;BME280;46462;32.608;-117.032;2023-05-23T11:11:21;99236.79;;;23.85;48.53
60646;BME280;46462;32.608;-117.032;2023-05-23T11:13:55;99233.78;;;23.82;48.54
60646;BME280;46462;32.608;-117.032;2023-05-23T11:16:25;99231.12;;;23.83;48.52
60646;BME280;46462;32.608;-117.032;2023-05-23T11:18:51;99231.56;;;23.86;48.43
60646;BME280;46462;32.608;-117.032;2023-05-23T11:21:22;99233.20;;;23.85;48.47
60646;BME280;46462;32.608;-117.032;2023-05-23T11:23:54;99233.17;;;23.89;48.33
60646;BME280;46462;32.608;-117.032;2023-05-23T11:26:29;99229.22;;;23.85;48.43
60646;BME280;46462;32.608;-117.032;2023-05-23T11:28:58;99225.99;;;23.82;48.49
60646;BME280;46462;32.608;-117.032;2023-05-23T11:31:25;99221.04;;;23.86;48.36
60646;BME280;46462;32.608;-117.032;2023-05-23T11:33:56;99215.12;;;23.88;48.26
60646;BME280;46462;32.608;-117.032;2023-05-23T11:36:27;99215.65;;;23.90;48.22
60646;BME280;46462;32.608;-117.032;2023-05-23T11:39:01;99213.22;;;23.85;48.33
60646;BME280;46462;32.608;-117.032;2023-05-23T11:41:28;99213.66;;;23.90;48.20
60646;BME280;46462;32.608;-117.032;2023-05-23T11:43:59;99210.37;;;23.87;48.27
60646;BME280;46462;32.608;-117.032;2023-05-23T11:46:29;99207.41;;;23.90;48.22
60646;BME280;46462;32.608;-117.032;2023-05-23T11:49:00;99209.98;;;23.88;48.21
60646;BME280;46462;32.608;-117.032;2023-05-23T11:51:31;99208.88;;;23.87;48.26
60646;BME280;46462;32.608;-117.032;2023-05-23T11:54:01;99206.76;;;23.85;48.28
60646;BME280;46462;32.608;-117.032;2023-05-23T11:56:38;99202.34;;;23.81;48.39
60646;BME280;46462;32.608;-117.032;2023-05-23T11:59:03;99199.93;;;23.84;48.22
60646;BME280;46462;32.608;-117.032;2023-05-23T12:01:36;99198.90;;;23.80;48.39
60646;BME280;46462;32.608;-117.032;2023-05-23T12:04:09;99201.65;;;23.79;48.34
60646;BME280;46462;32.608;-117.032;2023-05-23T12:06:36;99200.57;;;23.79;48.32
60646;BME280;46462;32.608;-117.032;2023-05-23T12:09:06;99200.45;;;23.80;48.31
60646;BME280;46462;32.608;-117.032;2023-05-23T12:11:38;99200.69;;;23.79;48.36
60646;BME280;46462;32.608;-117.032;2023-05-23T12:14:08;99200.39;;;23.80;48.32
60646;BME280;46462;32.608;-117.032;2023-05-23T12:16:38;99201.40;;;23.76;48.33
60646;BME280;46462;32.608;-117.032;2023-05-23T12:19:09;99203.48;;;23.75;48.39
60646;BME280;46462;32.608;-117.032;2023-05-23T12:21:42;99206.28;;;23.80;48.25
60646;BME280;46462;32.608;-117.032;2023-05-23T12:24:14;99204.77;;;23.69;48.52
60646;BME280;46462;32.608;-117.032;2023-05-23T12:26:46;99204.48;;;23.72;48.48
60646;BME280;46462;32.608;-117.032;2023-05-23T12:29:12;99203.43;;;23.71;48.50
60646;BME280;46462;32.608;-117.032;2023-05-23T12:31:42;99200.92;;;23.67;48.59
60646;BME280;46462;32.608;-117.032;2023-05-23T12:34:13;99194.69;;;23.70;48.53
60646;BME280;46462;32.608;-117.032;2023-05-23T12:36:44;99194.82;;;23.68;48.53
60646;BME280;46462;32.608;-117.032;2023-05-23T12:39:15;99192.18;;;23.62;48.69
60646;BME280;46462;32.608;-117.032;2023-05-23T12:41:46;99191.41;;;23.62;48.73
60646;BME280;46462;32.608;-117.032;2023-05-23T12:44:16;99192.91;;;23.66;48.64
60646;BME280;46462;32.608;-117.032;2023-05-23T12:46:47;99192.84;;;23.71;48.47
60646;BME280;46462;32.608;-117.032;2023-05-23T12:49:18;99193.39;;;23.72;48.47
60646;BME280;46462;32.608;-117.032;2023-05-23T12:51:48;99192.55;;;23.72;48.40
60646;BME280;46462;32.608;-117.032;2023-05-23T12:54:19;99191.65;;;23.73;48.36
60646;BME280;46462;32.608;-117.032;2023-05-23T12:56:50;99190.18;;;23.74;48.41
60646;BME280;46462;32.608;-117.032;2023-05-23T12:59:20;99186.70;;;23.73;48.38